Time;durP1;ratioP1;P1;durP2;ratioP2;P2;SDS_P1;SDS_P2;PMS_P1;PMS_P2;Temp;Humidity;BMP_temperature;BMP_pressure;BME280_temperature;BME280_humidity;BME280_pressure;Samples;Min_cycle;Max_cycle;Signal;HPM_P1;HPM_P2
2023/10/30 00:01:02;;;;;;;;;1.00;0.67;;;;;;;;5141203;27;45551;-53
2023/10/30 00:03:29;;;;;;;;;1.00;1.00;;;;;;;;5141307;27;47360;-55
2023/10/30 00:05:55;;;;;;;;;3.00;2.00;;;;;;;;5142711;27;45463;-54
2023/10/30 00:08:20;;;;;;;;;1.67;0.67;;;;;;;;5142829;27;45536;-54
2023/10/30 00:10:45;;;;;;;;;3.00;0.00;;;;;;;;5143496;27;45358;-54
2023/10/30 00:13:10;;;;;;;;;0.67;0.67;;;;;;;;5142565;27;45586;-54
2023/10/30 00:15:36;;;;;;;;;1.67;0.67;;;;;;;;5141225;27;45568;-54
2023/10/30 00:18:01;;;;;;;;;1.00;1.00;;;;;;;;5143774;27;45289;-53
2023/10/30 00:20:26;;;;;;;;;0.67;0.00;;;;;;;;5143602;27;45288;-54
2023/10/30 00:22:52;;;;;;;;;0.00;0.00;;;;;;;;5142925;27;46041;-53
2023/10/30 00:25:18;;;;;;;;;0.67;0.67;;;;;;;;5143002;27;45311;-54
2023/10/30 00:27:43;;;;;;;;;2.00;0.00;;;;;;;;5143023;27;45466;-54
2023/10/30 00:30:09;;;;;;;;;0.33;0.33;;;;;;;;5123858;27;45438;-52
2023/10/30 00:32:34;;;;;;;;;0.00;0.00;;;;;;;;5141005;27;47067;-55
2023/10/30 00:34:59;;;;;;;;;3.33;0.67;;;;;;;;5141966;27;45375;-54
2023/10/30 00:37:25;;;;;;;;;2.33;0.67;;;;;;;;5141873;27;45331;-54
2023/10/30 00:39:50;;;;;;;;;0.00;0.00;;;;;;;;5142799;27;45362;-53
2023/10/30 00:42:15;;;;;;;;;0.00;0.00;;;;;;;;5142305;27;45515;-53
2023/10/30 00:44:41;;;;;;;;;3.67;0.67;;;;;;;;5142495;27;45240;-53
2023/10/30 00:47:06;;;;;;;;;0.00;0.00;;;;;;;;5143699;27;45213;-54
2023/10/30 00:49:31;;;;;;;;;1.33;0.00;;;;;;;;5142947;27;45257;-54
2023/10/30 00:51:56;;;;;;;;;1.00;0.00;;;;;;;;5124242;27;46221;-53
2023/10/30 00:54:21;;;;;;;;;0.33;0.00;;;;;;;;5142665;27;45431;-53
2023/10/30 00:56:47;;;;;;;;;1.33;0.67;;;;;;;;5142687;27;45194;-54
2023/10/30 00:59:12;;;;;;;;;0.67;0.67;;;;;;;;5142918;27;45254;-55
2023/10/30 01:01:37;;;;;;;;;2.67;1.33;;;;;;;;5141933;27;46439;-53
2023/10/30 01:04:02;;;;;;;;;0.33;0.33;;;;;;;;5123765;27;45415;-54
2023/10/30 01:06:28;;;;;;;;;1.00;0.67;;;;;;;;5142387;27;45329;-54
2023/10/30 01:08:53;;;;;;;;;0.67;0.67;;;;;;;;5142070;27;45446;-55
2023/10/30 01:11:18;;;;;;;;;1.33;0.00;;;;;;;;5142562;27;45585;-54
2023/10/30 01:13:43;;;;;;;;;3.33;0.33;;;;;;;;5142239;27;45333;-53
2023/10/30 01:16:08;;;;;;;;;0.00;0.00;;;;;;;;5146484;27;45500;-53
2023/10/30 01:18:34;;;;;;;;;1.00;0.33;;;;;;;;5127780;27;45277;-53
2023/10/30 01:20:59;;;;;;;;;1.67;0.00;;;;;;;;5126839;27;47227;-53
2023/10/30 01:23:24;;;;;;;;;0.67;0.00;;;;;;;;5145788;27;45226;-54
2023/10/30 01:25:49;;;;;;;;;1.33;1.33;;;;;;;;5145983;27;45467;-53
2023/10/30 01:28:15;;;;;;;;;1.00;1.00;;;;;;;;5145461;27;45279;-53
2023/10/30 01:30:40;;;;;;;;;2.00;0.33;;;;;;;;5145786;27;46504;-52
2023/10/30 01:33:05;;;;;;;;;2.00;0.67;;;;;;;;5145720;27;45467;-53
2023/10/30 01:35:31;;;;;;;;;0.67;0.67;;;;;;;;5145131;27;45238;-52
2023/10/30 01:37:56;;;;;;;;;1.67;0.00;;;;;;;;5126619;27;45433;-53
2023/10/30 01:40:21;;;;;;;;;0.00;0.00;;;;;;;;5145171;27;46224;-53
2023/10/30 01:42:46;;;;;;;;;1.00;1.00;;;;;;;;5145642;27;45394;-53
2023/10/30 01:45:11;;;;;;;;;1.00;0.00;;;;;;;;5145601;27;45585;-53
2023/10/30 01:47:37;;;;;;;;;1.67;0.00;;;;;;;;5145913;27;45288;-54
2023/10/30 01:50:05;;;;;;;;;0.00;0.00;;;;;;;;5145049;27;45454;-52
2023/10/30 01:52:31;;;;;;;;;1.33;0.33;;;;;;;;5145086;27;45428;-53
2023/10/30 01:54:56;;;;;;;;;0.00;0.00;;;;;;;;5145019;27;45373;-53
2023/10/30 01:57:22;;;;;;;;;0.00;0.00;;;;;;;;5145492;27;45669;-52
2023/10/30 01:59:49;;;;;;;;;3.67;1.00;;;;;;;;5144269;27;46282;-53
2023/10/30 02:02:14;;;;;;;;;0.33;0.33;;;;;;;;5144927;27;45288;-53
2023/10/30 02:04:39;;;;;;;;;0.67;0.67;;;;;;;;5145125;27;45280;-55
2023/10/30 02:07:04;;;;;;;;;0.00;0.00;;;;;;;;5144963;27;45456;-52
2023/10/30 02:09:31;;;;;;;;;1.00;1.00;;;;;;;;5143265;27;46460;-52
2023/10/30 02:11:57;;;;;;;;;1.00;1.00;;;;;;;;5144738;27;45395;-52
2023/10/30 02:14:23;;;;;;;;;1.67;0.67;;;;;;;;5145086;27;45444;-53
2023/10/30 02:16:48;;;;;;;;;4.00;0.00;;;;;;;;5145471;27;45272;-53
2023/10/30 02:19:17;;;;;;;;;0.00;0.00;;;;;;;;5144539;27;46386;-53
2023/10/30 02:21:42;;;;;;;;;1.67;1.00;;;;;;;;5133638;27;45361;-53
2023/10/30 02:24:08;;;;;;;;;0.00;0.00;;;;;;;;5126483;27;45276;-52
2023/10/30 02:26:33;;;;;;;;;1.33;1.33;;;;;;;;5142692;27;45325;-53
2023/10/30 02:29:01;;;;;;;;;0.33;0.33;;;;;;;;5144505;27;45408;-51
2023/10/30 02:31:26;;;;;;;;;0.00;0.00;;;;;;;;5126512;27;45617;-54
2023/10/30 02:33:51;;;;;;;;;1.33;1.00;;;;;;;;5144823;27;45460;-54
2023/10/30 02:36:17;;;;;;;;;3.33;1.00;;;;;;;;5125947;27;45596;-54
2023/10/30 02:38:42;;;;;;;;;2.33;0.33;;;;;;;;5144640;27;47005;-56
2023/10/30 02:41:07;;;;;;;;;1.00;0.00;;;;;;;;5145012;27;45284;-53
2023/10/30 02:43:32;;;;;;;;;1.67;1.00;;;;;;;;5144830;27;45508;-53
2023/10/30 02:45:57;;;;;;;;;3.00;0.67;;;;;;;;5145278;27;45388;-53
2023/10/30 02:48:22;;;;;;;;;1.00;1.00;;;;;;;;5144645;27;45555;-53
2023/10/30 02:50:48;;;;;;;;;0.00;0.00;;;;;;;;5144715;27;45468;-52
2023/10/30 02:53:13;;;;;;;;;1.00;1.00;;;;;;;;5144419;27;45338;-53
2023/10/30 02:55:38;;;;;;;;;0.00;0.00;;;;;;;;5144252;27;45675;-52
2023/10/30 02:58:03;;;;;;;;;0.00;0.00;;;;;;;;5143715;27;45270;-53
2023/10/30 03:00:28;;;;;;;;;1.67;0.00;;;;;;;;5144146;27;45433;-54
2023/10/30 03:02:54;;;;;;;;;1.00;1.00;;;;;;;;5144604;27;45422;-52
2023/10/30 03:05:19;;;;;;;;;0.67;0.00;;;;;;;;5144262;27;45490;-53
2023/10/30 03:07:44;;;;;;;;;2.33;1.00;;;;;;;;5143764;27;45338;-54
2023/10/30 03:10:09;;;;;;;;;1.00;1.00;;;;;;;;5143791;27;45351;-54
2023/10/30 03:12:34;;;;;;;;;4.33;2.00;;;;;;;;5144005;27;45328;-53
2023/10/30 03:15:00;;;;;;;;;2.67;0.00;;;;;;;;5144210;27;45563;-54
2023/10/30 03:17:25;;;;;;;;;3.00;1.00;;;;;;;;5144247;27;45364;-54
2023/10/30 03:19:50;;;;;;;;;1.00;1.00;;;;;;;;5144088;27;45452;-51
2023/10/30 03:22:15;;;;;;;;;1.00;1.00;;;;;;;;5143744;27;45561;-53
2023/10/30 03:24:41;;;;;;;;;1.67;1.00;;;;;;;;5144237;27;45326;-53
2023/10/30 03:27:06;;;;;;;;;1.00;1.00;;;;;;;;5125106;27;46450;-54
2023/10/30 03:29:34;;;;;;;;;0.00;0.00;;;;;;;;5125087;27;45390;-53
2023/10/30 03:31:59;;;;;;;;;0.00;0.00;;;;;;;;5143500;27;45381;-54
2023/10/30 03:34:24;;;;;;;;;0.00;0.00;;;;;;;;5125299;27;45578;-53
2023/10/30 03:36:49;;;;;;;;;1.00;1.00;;;;;;;;5143232;27;45265;-50
2023/10/30 03:39:15;;;;;;;;;0.33;0.00;;;;;;;;5143929;27;45156;-54
2023/10/30 03:41:40;;;;;;;;;0.67;0.00;;;;;;;;5143679;27;45447;-52
2023/10/30 03:44:05;;;;;;;;;2.00;1.00;;;;;;;;5125808;27;45346;-52
2023/10/30 03:46:31;;;;;;;;;1.33;1.33;;;;;;;;5143911;27;47773;-53
2023/10/30 03:48:57;;;;;;;;;1.67;1.67;;;;;;;;5133488;27;45222;-54
2023/10/30 03:51:22;;;;;;;;;1.00;1.00;;;;;;;;5139513;27;45363;-52
2023/10/30 03:53:47;;;;;;;;;1.67;0.33;;;;;;;;5143542;27;45273;-54
2023/10/30 03:56:12;;;;;;;;;6.00;1.00;;;;;;;;5143084;27;45479;-54
2023/10/30 03:58:37;;;;;;;;;1.00;1.00;;;;;;;;5143428;27;45445;-54
2023/10/30 04:01:09;;;;;;;;;1.33;0.00;;;;;;;;5140896;27;45601;-52
2023/10/30 04:03:34;;;;;;;;;0.00;0.00;;;;;;;;5142700;27;45308;-52
2023/10/30 04:06:03;;;;;;;;;3.00;1.00;;;;;;;;5142785;27;45563;-53
2023/10/30 04:08:28;;;;;;;;;0.33;0.33;;;;;;;;5144648;27;45343;-57
2023/10/30 04:10:53;;;;;;;;;1.00;0.33;;;;;;;;5144078;27;45373;-52
2023/10/30 04:13:18;;;;;;;;;2.33;1.00;;;;;;;;5142851;27;45450;-53
2023/10/30 04:15:44;;;;;;;;;1.00;1.00;;;;;;;;5142858;27;46398;-53
2023/10/30 04:18:09;;;;;;;;;1.00;1.00;;;;;;;;5140926;27;45569;-53
2023/10/30 04:20:34;;;;;;;;;0.67;0.67;;;;;;;;5142767;27;45367;-53
2023/10/30 04:22:59;;;;;;;;;1.00;1.00;;;;;;;;5143198;27;45626;-54
2023/10/30 04:25:24;;;;;;;;;0.00;0.00;;;;;;;;5142867;27;45531;-53
2023/10/30 04:27:50;;;;;;;;;0.67;0.67;;;;;;;;5143092;27;45312;-53
2023/10/30 04:30:15;;;;;;;;;1.33;0.00;;;;;;;;5143177;27;45780;-54
2023/10/30 04:32:40;;;;;;;;;2.33;2.33;;;;;;;;5142886;27;45565;-54
2023/10/30 04:35:05;;;;;;;;;2.67;1.00;;;;;;;;5143033;27;45604;-54
2023/10/30 04:37:30;;;;;;;;;3.33;1.00;;;;;;;;5142596;27;45350;-53
2023/10/30 04:39:56;;;;;;;;;1.00;1.00;;;;;;;;5143473;27;45569;-54
2023/10/30 04:42:22;;;;;;;;;1.00;1.00;;;;;;;;5142861;27;45263;-54
2023/10/30 04:44:47;;;;;;;;;1.00;1.00;;;;;;;;5142709;27;45288;-53
2023/10/30 04:47:12;;;;;;;;;0.00;0.00;;;;;;;;5123590;27;45204;-51
2023/10/30 04:49:38;;;;;;;;;1.00;1.00;;;;;;;;5127717;27;45296;-54
2023/10/30 04:52:03;;;;;;;;;2.00;0.67;;;;;;;;5142431;27;45389;-53
2023/10/30 04:54:28;;;;;;;;;0.00;0.00;;;;;;;;5142221;27;45391;-53
2023/10/30 04:56:54;;;;;;;;;2.00;2.00;;;;;;;;5142577;27;45326;-53
2023/10/30 04:59:19;;;;;;;;;0.67;0.67;;;;;;;;5142080;27;45313;-54
2023/10/30 05:01:44;;;;;;;;;3.00;1.33;;;;;;;;5142819;27;45203;-53
2023/10/30 05:04:09;;;;;;;;;2.33;2.00;;;;;;;;5141916;27;45589;-52
2023/10/30 05:06:34;;;;;;;;;1.00;1.00;;;;;;;;5142096;27;45446;-54
2023/10/30 05:08:59;;;;;;;;;0.67;0.00;;;;;;;;5142326;27;45231;-52
2023/10/30 05:11:25;;;;;;;;;1.00;1.00;;;;;;;;5142453;27;45177;-53
2023/10/30 05:13:50;;;;;;;;;0.67;0.67;;;;;;;;5141661;27;45447;-54
2023/10/30 05:16:15;;;;;;;;;4.00;1.00;;;;;;;;5142239;27;45509;-54
2023/10/30 05:18:40;;;;;;;;;2.00;1.67;;;;;;;;5142661;27;45203;-54
2023/10/30 05:21:06;;;;;;;;;2.00;1.00;;;;;;;;5141809;27;45205;-53
2023/10/30 05:23:31;;;;;;;;;3.00;3.00;;;;;;;;5141917;27;46690;-53
2023/10/30 05:25:56;;;;;;;;;3.67;0.67;;;;;;;;5123667;27;45469;-54
2023/10/30 05:28:21;;;;;;;;;1.00;1.00;;;;;;;;5141832;27;45327;-54
2023/10/30 05:30:48;;;;;;;;;1.33;1.33;;;;;;;;5141990;27;45382;-55
2023/10/30 05:33:13;;;;;;;;;3.33;2.00;;;;;;;;5123178;27;46154;-55
2023/10/30 05:35:38;;;;;;;;;0.67;0.67;;;;;;;;5141147;27;45388;-54
2023/10/30 05:38:05;;;;;;;;;3.33;2.00;;;;;;;;5141945;27;45395;-53
2023/10/30 05:40:30;;;;;;;;;4.00;1.67;;;;;;;;5134626;27;45542;-53
2023/10/30 05:42:55;;;;;;;;;2.00;1.00;;;;;;;;5141777;27;45458;-53
2023/10/30 05:45:20;;;;;;;;;1.67;1.67;;;;;;;;5141694;27;45440;-52
2023/10/30 05:47:45;;;;;;;;;1.33;0.67;;;;;;;;5141879;27;45371;-54
2023/10/30 05:50:11;;;;;;;;;1.00;1.00;;;;;;;;5129187;27;45690;-51
2023/10/30 05:52:36;;;;;;;;;2.33;2.00;;;;;;;;5139906;27;47093;-54
2023/10/30 05:55:02;;;;;;;;;0.00;0.00;;;;;;;;5140971;27;45314;-53
2023/10/30 05:57:27;;;;;;;;;0.67;0.67;;;;;;;;5141700;27;45649;-55
2023/10/30 05:59:53;;;;;;;;;1.33;0.67;;;;;;;;5123475;27;45688;-53
2023/10/30 06:02:18;;;;;;;;;2.33;2.33;;;;;;;;5145298;27;45465;-54
2023/10/30 06:04:43;;;;;;;;;0.67;0.67;;;;;;;;5144665;27;45551;-53
2023/10/30 06:07:08;;;;;;;;;1.00;1.00;;;;;;;;5145084;27;45367;-52
2023/10/30 06:09:34;;;;;;;;;2.33;1.00;;;;;;;;5143326;27;45161;-53
2023/10/30 06:12:00;;;;;;;;;2.33;1.00;;;;;;;;5144367;27;46225;-53
2023/10/30 06:14:25;;;;;;;;;0.67;0.67;;;;;;;;5143960;27;45581;-53
2023/10/30 06:16:50;;;;;;;;;0.67;0.33;;;;;;;;5124920;27;45461;-52
2023/10/30 06:19:15;;;;;;;;;1.00;1.00;;;;;;;;5145130;27;45575;-52
2023/10/30 06:21:43;;;;;;;;;3.33;0.33;;;;;;;;5144255;27;45638;-53
2023/10/30 06:24:08;;;;;;;;;3.33;1.00;;;;;;;;5144637;27;45476;-53
2023/10/30 06:26:33;;;;;;;;;1.00;1.00;;;;;;;;5143035;27;45792;-54
2023/10/30 06:28:59;;;;;;;;;3.33;2.00;;;;;;;;5144505;27;45659;-53
2023/10/30 06:31:24;;;;;;;;;1.33;0.33;;;;;;;;5142898;27;45542;-53
2023/10/30 06:33:49;;;;;;;;;1.00;1.00;;;;;;;;5143294;27;45450;-54
2023/10/30 06:36:14;;;;;;;;;1.67;1.00;;;;;;;;5144029;27;45454;-55
2023/10/30 06:38:40;;;;;;;;;1.00;1.00;;;;;;;;5144722;27;45472;-54
2023/10/30 06:41:05;;;;;;;;;1.67;1.67;;;;;;;;5144789;27;47468;-54
2023/10/30 06:43:33;;;;;;;;;0.00;0.00;;;;;;;;5143667;27;45393;-54
2023/10/30 06:46:00;;;;;;;;;1.00;1.00;;;;;;;;5142922;27;45455;-54
2023/10/30 06:48:25;;;;;;;;;2.00;1.00;;;;;;;;5144182;27;45202;-53
2023/10/30 06:50:50;;;;;;;;;2.00;2.00;;;;;;;;5143820;27;45604;-54
2023/10/30 06:53:15;;;;;;;;;1.00;1.00;;;;;;;;5141983;27;45278;-54
2023/10/30 06:55:41;;;;;;;;;1.00;1.00;;;;;;;;5143831;27;45331;-54
2023/10/30 06:58:06;;;;;;;;;2.33;1.00;;;;;;;;5143162;27;45424;-50
2023/10/30 07:00:31;;;;;;;;;1.00;1.00;;;;;;;;5143997;27;45472;-51
2023/10/30 07:02:56;;;;;;;;;0.67;0.67;;;;;;;;5125303;27;45655;-54
2023/10/30 07:05:21;;;;;;;;;1.00;1.00;;;;;;;;5133119;27;45534;-54
2023/10/30 07:07:47;;;;;;;;;1.00;1.00;;;;;;;;5136234;27;45551;-53
2023/10/30 07:10:13;;;;;;;;;1.33;1.33;;;;;;;;5134969;27;47205;-54
2023/10/30 07:12:38;;;;;;;;;4.33;2.67;;;;;;;;5133864;27;45396;-54
2023/10/30 07:15:03;;;;;;;;;2.67;2.67;;;;;;;;5122954;27;45684;-52
2023/10/30 07:17:28;;;;;;;;;4.67;3.00;;;;;;;;5141633;27;45602;-53
2023/10/30 07:19:54;;;;;;;;;1.00;1.00;;;;;;;;5141530;27;45506;-54
2023/10/30 07:22:19;;;;;;;;;2.00;2.00;;;;;;;;5132065;27;45437;-52
2023/10/30 07:24:44;;;;;;;;;2.00;2.00;;;;;;;;5127097;27;45474;-53
2023/10/30 07:27:10;;;;;;;;;2.67;2.00;;;;;;;;5130640;27;45354;-54
2023/10/30 07:29:35;;;;;;;;;5.33;2.33;;;;;;;;5122086;27;45558;-53
2023/10/30 07:32:00;;;;;;;;;1.67;1.67;;;;;;;;5124217;27;45629;-51
2023/10/30 07:34:25;;;;;;;;;4.67;2.00;;;;;;;;5133351;27;45231;-54
2023/10/30 07:36:51;;;;;;;;;4.67;3.33;;;;;;;;5132441;27;45512;-52
2023/10/30 07:39:16;;;;;;;;;4.33;2.00;;;;;;;;5138988;27;45704;-54
2023/10/30 07:41:41;;;;;;;;;3.67;3.67;;;;;;;;5135429;27;45678;-55
2023/10/30 07:44:07;;;;;;;;;4.33;4.00;;;;;;;;5141853;27;45941;-55
2023/10/30 07:46:32;;;;;;;;;4.67;3.00;;;;;;;;5128415;27;45276;-55
2023/10/30 07:49:01;;;;;;;;;3.67;3.67;;;;;;;;5140249;27;45290;-54
2023/10/30 07:51:27;;;;;;;;;5.33;4.33;;;;;;;;5136192;27;45602;-54
2023/10/30 07:53:52;;;;;;;;;4.67;4.67;;;;;;;;5134843;27;45436;-55
2023/10/30 07:56:18;;;;;;;;;4.00;4.00;;;;;;;;5136862;27;45343;-55
2023/10/30 07:58:43;;;;;;;;;4.67;4.67;;;;;;;;5134195;27;45488;-55
2023/10/30 08:01:09;;;;;;;;;3.33;2.67;;;;;;;;5137125;27;45520;-54
2023/10/30 08:03:34;;;;;;;;;3.67;3.00;;;;;;;;5140075;27;45457;-55
2023/10/30 08:06:00;;;;;;;;;4.00;3.67;;;;;;;;5128778;27;45783;-55
2023/10/30 08:08:25;;;;;;;;;6.67;3.33;;;;;;;;5130741;27;45623;-55
2023/10/30 08:10:50;;;;;;;;;4.67;4.00;;;;;;;;5127293;27;45715;-56
2023/10/30 08:13:15;;;;;;;;;0.67;0.67;;;;;;;;5125275;27;45434;-54
2023/10/30 08:15:41;;;;;;;;;1.00;1.00;;;;;;;;5135799;27;45435;-55
2023/10/30 08:18:06;;;;;;;;;0.67;0.67;;;;;;;;5134044;27;46045;-55
2023/10/30 08:20:31;;;;;;;;;1.00;1.00;;;;;;;;5131591;27;45342;-54
2023/10/30 08:22:57;;;;;;;;;0.67;0.00;;;;;;;;5132494;27;45253;-54
2023/10/30 08:25:22;;;;;;;;;1.67;0.67;;;;;;;;5140972;27;45569;-53
2023/10/30 08:27:47;;;;;;;;;0.67;0.67;;;;;;;;5125916;27;45515;-54
2023/10/30 08:30:12;;;;;;;;;2.33;0.67;;;;;;;;5113798;27;45706;-54
2023/10/30 08:32:39;;;;;;;;;3.67;3.67;;;;;;;;5130893;27;45436;-54
2023/10/30 08:35:05;;;;;;;;;3.67;0.33;;;;;;;;5109539;27;45604;-54
2023/10/30 08:37:30;;;;;;;;;0.33;0.00;;;;;;;;5112340;27;47283;-55
2023/10/30 08:39:55;;;;;;;;;2.33;2.33;;;;;;;;5118676;27;45295;-54
2023/10/30 08:42:20;;;;;;;;;1.00;1.00;;;;;;;;5134908;27;45450;-55
2023/10/30 08:44:46;;;;;;;;;3.00;1.33;;;;;;;;5107995;27;45665;-48
2023/10/30 08:47:12;;;;;;;;;1.00;1.00;;;;;;;;5114407;27;46142;-48
2023/10/30 08:49:38;;;;;;;;;1.33;1.33;;;;;;;;5131415;27;45870;-51
2023/10/30 08:52:03;;;;;;;;;1.00;1.00;;;;;;;;5120720;27;45456;-51
2023/10/30 08:54:29;;;;;;;;;2.33;1.67;;;;;;;;5119617;27;45506;-51
2023/10/30 08:56:54;;;;;;;;;3.67;1.67;;;;;;;;5118137;27;45480;-51
2023/10/30 08:59:19;;;;;;;;;2.00;2.00;;;;;;;;5137332;27;45443;-49
2023/10/30 09:01:45;;;;;;;;;1.33;1.00;;;;;;;;5137659;27;45631;-50
2023/10/30 09:04:10;;;;;;;;;2.00;2.00;;;;;;;;5135027;27;45449;-52
2023/10/30 09:06:36;;;;;;;;;2.67;2.67;;;;;;;;5127612;27;45636;-48
2023/10/30 09:09:01;;;;;;;;;4.00;2.67;;;;;;;;5129620;27;45377;-51
2023/10/30 09:11:26;;;;;;;;;3.00;3.00;;;;;;;;5121203;27;45576;-49
2023/10/30 09:13:52;;;;;;;;;3.00;3.00;;;;;;;;5132835;27;45461;-48
2023/10/30 09:16:17;;;;;;;;;6.00;6.00;;;;;;;;5130489;27;46979;-51
2023/10/30 09:18:42;;;;;;;;;6.33;5.00;;;;;;;;5137218;27;45301;-51
2023/10/30 09:21:08;;;;;;;;;5.33;3.33;;;;;;;;5108781;27;45421;-50
2023/10/30 09:23:34;;;;;;;;;3.67;3.67;;;;;;;;5128073;27;45733;-51
2023/10/30 09:25:59;;;;;;;;;3.67;3.67;;;;;;;;5138796;27;45585;-49
2023/10/30 09:28:24;;;;;;;;;7.00;5.00;;;;;;;;5122450;27;45295;-48
2023/10/30 09:30:49;;;;;;;;;5.67;5.67;;;;;;;;5121251;27;45290;-50
2023/10/30 09:33:15;;;;;;;;;7.00;5.67;;;;;;;;5132032;27;45860;-48
2023/10/30 09:35:42;;;;;;;;;7.00;7.00;;;;;;;;5137857;27;45515;-50
2023/10/30 09:38:07;;;;;;;;;7.00;6.67;;;;;;;;5132860;27;45372;-50
2023/10/30 09:40:32;;;;;;;;;7.67;5.00;;;;;;;;5114822;27;45431;-50
2023/10/30 09:42:59;;;;;;;;;7.67;7.67;;;;;;;;5136287;27;45563;-49
2023/10/30 09:45:25;;;;;;;;;6.00;6.00;;;;;;;;5131264;27;46559;-52
2023/10/30 09:47:51;;;;;;;;;6.33;6.00;;;;;;;;5125711;27;45427;-48
2023/10/30 09:50:17;;;;;;;;;10.67;7.67;;;;;;;;5136508;27;45360;-51
2023/10/30 09:52:43;;;;;;;;;6.67;4.67;;;;;;;;5133128;27;45595;-48
2023/10/30 09:55:10;;;;;;;;;10.33;8.00;;;;;;;;5133008;27;46909;-49
2023/10/30 09:57:35;;;;;;;;;6.33;6.33;;;;;;;;5139837;27;45211;-49
2023/10/30 10:00:02;;;;;;;;;7.00;7.00;;;;;;;;5142712;27;45447;-50
2023/10/30 10:02:27;;;;;;;;;7.33;6.67;;;;;;;;5120910;27;45633;-48
2023/10/30 10:04:52;;;;;;;;;10.67;6.00;;;;;;;;5130306;27;46817;-48
2023/10/30 10:07:18;;;;;;;;;5.67;5.67;;;;;;;;5131394;27;45479;-50
2023/10/30 10:09:56;;;;;;;;;6.67;6.67;;;;;;;;5141052;27;45435;-49
2023/10/30 10:12:21;;;;;;;;;5.00;5.00;;;;;;;;5137797;27;46473;-53
2023/10/30 10:14:46;;;;;;;;;5.00;2.33;;;;;;;;5137388;27;45273;-50
2023/10/30 10:17:11;;;;;;;;;4.67;4.67;;;;;;;;5139417;27;45379;-48
2023/10/30 10:19:45;;;;;;;;;4.00;3.67;;;;;;;;5142726;27;45290;-49
2023/10/30 10:22:10;;;;;;;;;5.00;5.00;;;;;;;;5135082;27;45387;-48
2023/10/30 10:24:38;;;;;;;;;4.33;4.33;;;;;;;;5131216;27;45542;-47
2023/10/30 10:27:06;;;;;;;;;5.00;4.00;;;;;;;;5117445;27;45416;-48
2023/10/30 10:29:33;;;;;;;;;5.33;4.00;;;;;;;;5139152;27;45454;-49
2023/10/30 10:31:58;;;;;;;;;7.00;6.00;;;;;;;;5134796;27;45512;-49
2023/10/30 10:34:23;;;;;;;;;5.33;5.33;;;;;;;;5133765;27;45290;-51
2023/10/30 10:36:48;;;;;;;;;3.67;3.67;;;;;;;;5141298;27;45481;-48
2023/10/30 10:39:14;;;;;;;;;9.33;7.00;;;;;;;;5139919;27;45656;-51
2023/10/30 10:41:41;;;;;;;;;9.00;7.00;;;;;;;;5141079;27;45333;-48
2023/10/30 10:44:06;;;;;;;;;7.33;7.00;;;;;;;;5142146;27;45306;-49
2023/10/30 10:46:31;;;;;;;;;9.00;7.33;;;;;;;;5140461;27;45536;-50
2023/10/30 10:48:57;;;;;;;;;9.00;6.33;;;;;;;;5137631;27;45578;-49
2023/10/30 10:51:29;;;;;;;;;7.00;6.33;;;;;;;;5142794;27;45581;-48
2023/10/30 10:53:56;;;;;;;;;7.67;6.33;;;;;;;;5139985;27;45642;-50
2023/10/30 10:56:22;;;;;;;;;6.00;6.00;;;;;;;;5140071;27;45825;-49
2023/10/30 10:58:55;;;;;;;;;6.33;6.00;;;;;;;;5137293;27;45391;-48
2023/10/30 11:01:21;;;;;;;;;8.33;6.33;;;;;;;;5139975;27;45398;-48
2023/10/30 11:03:48;;;;;;;;;10.00;6.67;;;;;;;;5139640;27;47075;-50
2023/10/30 11:06:14;;;;;;;;;8.67;7.33;;;;;;;;5134340;27;45521;-49
2023/10/30 11:08:39;;;;;;;;;7.33;5.67;;;;;;;;5132709;27;45579;-49
2023/10/30 11:11:12;;;;;;;;;4.67;4.00;;;;;;;;5130282;27;45434;-48
2023/10/30 11:13:44;;;;;;;;;0.33;0.00;;;;;;;;5135107;27;45348;-52
2023/10/30 11:16:13;;;;;;;;;6.00;3.33;;;;;;;;5133173;27;45842;-52
2023/10/30 11:18:38;;;;;;;;;7.00;6.00;;;;;;;;5124245;27;45416;-48
2023/10/30 11:21:12;;;;;;;;;7.33;7.00;;;;;;;;5135815;27;46330;-48
2023/10/30 11:23:44;;;;;;;;;3.67;3.67;;;;;;;;5117489;27;47969;-51
2023/10/30 11:26:10;;;;;;;;;3.67;3.67;;;;;;;;5124784;27;45459;-51
2023/10/30 11:28:36;;;;;;;;;4.67;4.67;;;;;;;;5135502;27;45531;-49
2023/10/30 11:31:06;;;;;;;;;5.67;5.67;;;;;;;;5112953;27;45436;-49
2023/10/30 11:33:31;;;;;;;;;7.00;7.00;;;;;;;;5132844;27;45307;-51
2023/10/30 11:36:15;;;;;;;;;11.00;6.33;;;;;;;;5121124;27;45529;-49
2023/10/30 11:38:47;;;;;;;;;7.00;7.00;;;;;;;;5135759;27;45311;-48
2023/10/30 11:41:14;;;;;;;;;10.33;8.33;;;;;;;;5137171;27;45382;-47
2023/10/30 11:43:41;;;;;;;;;10.67;8.33;;;;;;;;5135129;27;46196;-48
2023/10/30 11:46:06;;;;;;;;;8.33;7.00;;;;;;;;5141093;27;45473;-48
2023/10/30 11:48:31;;;;;;;;;9.33;9.33;;;;;;;;5136366;27;45579;-49
2023/10/30 11:50:57;;;;;;;;;12.67;10.33;;;;;;;;5129810;27;45382;-49
2023/10/30 11:53:22;;;;;;;;;11.00;11.00;;;;;;;;5137134;27;46252;-50
2023/10/30 11:55:50;;;;;;;;;12.33;10.67;;;;;;;;5135383;27;45610;-52
2023/10/30 11:58:15;;;;;;;;;10.33;10.00;;;;;;;;5138965;27;45478;-50
2023/10/30 12:00:50;;;;;;;;;10.67;10.33;;;;;;;;5140347;27;45463;-50
2023/10/30 12:03:15;;;;;;;;;11.67;11.00;;;;;;;;5137363;27;45700;-49
2023/10/30 12:05:40;;;;;;;;;18.00;11.67;;;;;;;;5140318;27;45442;-49
2023/10/30 12:08:06;;;;;;;;;12.00;11.00;;;;;;;;5115959;27;45421;-48
2023/10/30 12:10:31;;;;;;;;;11.00;11.00;;;;;;;;5131848;27;45363;-50
2023/10/30 12:12:56;;;;;;;;;8.00;6.00;;;;;;;;5133388;27;46250;-50
2023/10/30 12:15:22;;;;;;;;;17.33;14.00;;;;;;;;5114842;27;45633;-51
2023/10/30 12:17:47;;;;;;;;;16.33;16.33;;;;;;;;5111448;27;45912;-51
2023/10/30 12:20:12;;;;;;;;;14.00;14.00;;;;;;;;5140363;27;45329;-52
2023/10/30 12:22:41;;;;;;;;;10.67;9.33;;;;;;;;5132968;27;45459;-51
2023/10/30 12:25:07;;;;;;;;;17.67;15.00;;;;;;;;5119700;27;46028;-50
2023/10/30 12:27:33;;;;;;;;;12.67;12.67;;;;;;;;5137407;27;45446;-47
2023/10/30 12:30:08;;;;;;;;;14.67;13.00;;;;;;;;5136938;27;45462;-46
2023/10/30 12:32:33;;;;;;;;;16.67;15.67;;;;;;;;5135267;27;45538;-49
2023/10/30 12:35:07;;;;;;;;;17.33;14.67;;;;;;;;5137452;27;45449;-48
2023/10/30 12:37:32;;;;;;;;;16.00;15.67;;;;;;;;5139380;27;45276;-48
2023/10/30 12:40:04;;;;;;;;;16.33;15.33;;;;;;;;5135207;27;45290;-46
2023/10/30 12:42:36;;;;;;;;;12.67;12.67;;;;;;;;5136506;27;46470;-49
2023/10/30 12:45:20;;;;;;;;;14.67;12.33;;;;;;;;5140041;27;45710;-48
2023/10/30 12:47:46;;;;;;;;;7.00;7.00;;;;;;;;5140576;27;45368;-47
2023/10/30 12:50:12;;;;;;;;;11.67;11.67;;;;;;;;5140614;27;45913;-49
2023/10/30 12:52:37;;;;;;;;;10.67;9.33;;;;;;;;5141149;27;45350;-48
2023/10/30 12:55:03;;;;;;;;;8.67;8.33;;;;;;;;5118029;27;45646;-47
2023/10/30 12:57:28;;;;;;;;;7.33;7.33;;;;;;;;5121424;27;45547;-47
2023/10/30 12:59:53;;;;;;;;;5.33;4.67;;;;;;;;5136486;27;45453;-47
2023/10/30 13:02:19;;;;;;;;;2.33;2.00;;;;;;;;5122398;27;47104;-49
2023/10/30 13:04:44;;;;;;;;;2.67;2.67;;;;;;;;5134091;27;45329;-51
2023/10/30 13:07:10;;;;;;;;;2.33;2.33;;;;;;;;5140328;27;45378;-48
2023/10/30 13:09:35;;;;;;;;;2.00;2.00;;;;;;;;5139817;27;45397;-49
2023/10/30 13:12:00;;;;;;;;;2.00;2.00;;;;;;;;5144293;27;45361;-47
2023/10/30 13:14:26;;;;;;;;;1.00;1.00;;;;;;;;5138878;27;45293;-51
2023/10/30 13:16:53;;;;;;;;;2.33;2.33;;;;;;;;5135895;27;45486;-47
2023/10/30 13:19:18;;;;;;;;;1.33;0.67;;;;;;;;5127895;27;45336;-47
2023/10/30 13:21:44;;;;;;;;;3.00;2.33;;;;;;;;5141726;27;45522;-47
2023/10/30 13:24:09;;;;;;;;;18.67;12.33;;;;;;;;5138729;27;45304;-50
2023/10/30 13:26:34;;;;;;;;;2.00;2.00;;;;;;;;5144734;27;45503;-48
2023/10/30 13:29:00;;;;;;;;;0.33;0.33;;;;;;;;5140604;27;45311;-47
2023/10/30 13:31:25;;;;;;;;;1.33;1.33;;;;;;;;5141771;27;45374;-51
2023/10/30 13:33:50;;;;;;;;;0.00;0.00;;;;;;;;5139068;27;45286;-47
2023/10/30 13:36:15;;;;;;;;;2.67;1.00;;;;;;;;5144002;27;45442;-48
2023/10/30 13:38:41;;;;;;;;;0.00;0.00;;;;;;;;5143948;27;45292;-47
2023/10/30 13:41:06;;;;;;;;;0.33;0.33;;;;;;;;5141515;27;45347;-47
2023/10/30 13:43:31;;;;;;;;;1.00;1.00;;;;;;;;5141487;27;45447;-47
2023/10/30 13:45:56;;;;;;;;;0.33;0.33;;;;;;;;5141511;27;45358;-46
2023/10/30 13:48:22;;;;;;;;;1.00;1.00;;;;;;;;5144237;27;45519;-48
2023/10/30 13:50:48;;;;;;;;;1.00;0.67;;;;;;;;5141341;27;45314;-46
2023/10/30 13:53:13;;;;;;;;;1.00;1.00;;;;;;;;5142305;27;45443;-48
2023/10/30 13:55:38;;;;;;;;;1.33;1.33;;;;;;;;5125391;27;45255;-50
2023/10/30 13:58:03;;;;;;;;;1.33;0.67;;;;;;;;5122245;27;45478;-48
2023/10/30 14:00:30;;;;;;;;;0.67;0.67;;;;;;;;5143775;27;45327;-47
2023/10/30 14:02:56;;;;;;;;;3.00;2.00;;;;;;;;5138409;27;45366;-47
2023/10/30 14:05:21;;;;;;;;;2.67;2.00;;;;;;;;5141990;27;45181;-49
2023/10/30 14:07:47;;;;;;;;;1.33;0.67;;;;;;;;5123074;27;45442;-48
2023/10/30 14:10:12;;;;;;;;;1.67;1.67;;;;;;;;5124369;27;46052;-48
2023/10/30 14:12:37;;;;;;;;;2.00;2.00;;;;;;;;5140188;27;45345;-47
2023/10/30 14:15:03;;;;;;;;;1.00;1.00;;;;;;;;5141190;27;45316;-47
2023/10/30 14:17:28;;;;;;;;;1.00;1.00;;;;;;;;5131564;27;45324;-49
2023/10/30 14:19:53;;;;;;;;;4.67;2.67;;;;;;;;5129525;27;46232;-48
2023/10/30 14:22:20;;;;;;;;;1.67;1.67;;;;;;;;5141796;27;45374;-49
2023/10/30 14:24:45;;;;;;;;;3.00;2.00;;;;;;;;5141937;27;45336;-47
2023/10/30 14:27:10;;;;;;;;;1.33;1.33;;;;;;;;5124070;27;45546;-48
2023/10/30 14:29:35;;;;;;;;;2.67;2.67;;;;;;;;5143243;27;45430;-47
2023/10/30 14:32:00;;;;;;;;;0.67;0.67;;;;;;;;5140702;27;45555;-50